sensor_id;sensor_type;location;lat;lon;timestamp;P1;durP1;ratioP1;P2;durP2;ratioP2
63217;SDS011;49314;48.278;16.378;2023-04-24T00:00:10;7.90;;;7.30;;
63217;SDS011;49314;48.278;16.378;2023-04-24T00:02:38;6.45;;;6.05;;
63217;SDS011;49314;48.278;16.378;2023-04-24T00:05:04;7.22;;;6.65;;
63217;SDS011;49314;48.278;16.378;2023-04-24T00:07:30;7.03;;;6.53;;
63217;SDS011;49314;48.278;16.378;2023-04-24T00:09:55;8.03;;;7.53;;
63217;SDS011;49314;48.278;16.378;2023-04-24T00:12:20;7.90;;;7.30;;
63217;SDS011;49314;48.278;16.378;2023-04-24T00:14:46;8.00;;;7.47;;
63217;SDS011;49314;48.278;16.378;2023-04-24T00:17:11;7.53;;;6.93;;
63217;SDS011;49314;48.278;16.378;2023-04-24T00:19:36;7.55;;;7.05;;
63217;SDS011;49314;48.278;16.378;2023-04-24T00:22:02;7.20;;;6.70;;
63217;SDS011;49314;48.278;16.378;2023-04-24T00:24:27;8.02;;;7.22;;
63217;SDS011;49314;48.278;16.378;2023-04-24T00:26:52;7.28;;;6.55;;
63217;SDS011;49314;48.278;16.378;2023-04-24T00:29:18;7.38;;;6.78;;
63217;SDS011;49314;48.278;16.378;2023-04-24T00:31:43;7.47;;;6.87;;
63217;SDS011;49314;48.278;16.378;2023-04-24T00:34:08;7.20;;;6.60;;
63217;SDS011;49314;48.278;16.378;2023-04-24T00:36:33;7.03;;;6.50;;
63217;SDS011;49314;48.278;16.378;2023-04-24T00:38:58;7.33;;;6.83;;
63217;SDS011;49314;48.278;16.378;2023-04-24T00:41:24;7.43;;;6.85;;
63217;SDS011;49314;48.278;16.378;2023-04-24T00:43:50;9.38;;;8.75;;
63217;SDS011;49314;48.278;16.378;2023-04-24T00:46:16;7.25;;;6.75;;
63217;SDS011;49314;48.278;16.378;2023-04-24T00:48:41;8.20;;;7.53;;
63217;SDS011;49314;48.278;16.378;2023-04-24T00:51:06;7.55;;;6.97;;
63217;SDS011;49314;48.278;16.378;2023-04-24T00:53:32;7.38;;;6.88;;
63217;SDS011;49314;48.278;16.378;2023-04-24T00:55:57;7.68;;;7.13;;
63217;SDS011;49314;48.278;16.378;2023-04-24T00:58:23;8.43;;;7.82;;
63217;SDS011;49314;48.278;16.378;2023-04-24T01:00:48;9.25;;;8.45;;
63217;SDS011;49314;48.278;16.378;2023-04-24T01:03:14;8.27;;;7.65;;
63217;SDS011;49314;48.278;16.378;2023-04-24T01:05:39;7.50;;;6.90;;
63217;SDS011;49314;48.278;16.378;2023-04-24T01:08:04;9.05;;;8.35;;
63217;SDS011;49314;48.278;16.378;2023-04-24T01:10:30;9.50;;;8.70;;
63217;SDS011;49314;48.278;16.378;2023-04-24T01:12:55;8.38;;;7.68;;
63217;SDS011;49314;48.278;16.378;2023-04-24T01:15:21;9.57;;;8.98;;
63217;SDS011;49314;48.278;16.378;2023-04-24T01:17:46;8.77;;;8.18;;
63217;SDS011;49314;48.278;16.378;2023-04-24T01:20:12;8.25;;;7.55;;
63217;SDS011;49314;48.278;16.378;2023-04-24T01:22:37;9.18;;;8.43;;
63217;SDS011;49314;48.278;16.378;2023-04-24T01:25:03;7.88;;;7.28;;
63217;SDS011;49314;48.278;16.378;2023-04-24T01:27:28;10.20;;;9.55;;
63217;SDS011;49314;48.278;16.378;2023-04-24T01:29:54;9.45;;;8.85;;
63217;SDS011;49314;48.278;16.378;2023-04-24T01:32:19;9.18;;;8.48;;
63217;SDS011;49314;48.278;16.378;2023-04-24T01:34:45;9.65;;;9.05;;
63217;SDS011;49314;48.278;16.378;2023-04-24T01:37:10;8.60;;;7.78;;
63217;SDS011;49314;48.278;16.378;2023-04-24T01:39:36;9.88;;;9.27;;
63217;SDS011;49314;48.278;16.378;2023-04-24T01:42:01;10.57;;;9.88;;
63217;SDS011;49314;48.278;16.378;2023-04-24T01:44:27;11.90;;;11.05;;
63217;SDS011;49314;48.278;16.378;2023-04-24T01:46:52;9.75;;;9.13;;
63217;SDS011;49314;48.278;16.378;2023-04-24T01:49:19;9.60;;;8.88;;
63217;SDS011;49314;48.278;16.378;2023-04-24T01:51:44;9.07;;;8.38;;
63217;SDS011;49314;48.278;16.378;2023-04-24T01:54:09;9.20;;;8.55;;
63217;SDS011;49314;48.278;16.378;2023-04-24T01:56:35;10.45;;;9.65;;
63217;SDS011;49314;48.278;16.378;2023-04-24T01:59:02;8.27;;;7.68;;
63217;SDS011;49314;48.278;16.378;2023-04-24T02:01:27;10.65;;;9.77;;
63217;SDS011;49314;48.278;16.378;2023-04-24T02:03:57;10.02;;;9.32;;
63217;SDS011;49314;48.278;16.378;2023-04-24T02:06:23;9.27;;;8.67;;
63217;SDS011;49314;48.278;16.378;2023-04-24T02:08:48;10.50;;;9.80;;
63217;SDS011;49314;48.278;16.378;2023-04-24T02:11:13;12.17;;;11.13;;
63217;SDS011;49314;48.278;16.378;2023-04-24T02:13:39;12.00;;;11.00;;
63217;SDS011;49314;48.278;16.378;2023-04-24T02:16:04;11.27;;;10.52;;
63217;SDS011;49314;48.278;16.378;2023-04-24T02:18:29;11.77;;;10.97;;
63217;SDS011;49314;48.278;16.378;2023-04-24T02:20:55;10.45;;;9.50;;
63217;SDS011;49314;48.278;16.378;2023-04-24T02:23:20;11.95;;;11.02;;
63217;SDS011;49314;48.278;16.378;2023-04-24T02:25:45;12.32;;;11.43;;
63217;SDS011;49314;48.278;16.378;2023-04-24T02:28:11;12.02;;;11.20;;
63217;SDS011;49314;48.278;16.378;2023-04-24T02:30:36;12.02;;;11.13;;
63217;SDS011;49314;48.278;16.378;2023-04-24T02:33:01;11.93;;;10.97;;
63217;SDS011;49314;48.278;16.378;2023-04-24T02:35:26;12.47;;;11.47;;
63217;SDS011;49314;48.278;16.378;2023-04-24T02:37:51;11.60;;;10.70;;
63217;SDS011;49314;48.278;16.378;2023-04-24T02:40:17;11.13;;;10.40;;
63217;SDS011;49314;48.278;16.378;2023-04-24T02:42:42;10.98;;;10.25;;
63217;SDS011;49314;48.278;16.378;2023-04-24T02:45:07;9.55;;;8.57;;
63217;SDS011;49314;48.278;16.378;2023-04-24T02:47:32;9.95;;;9.25;;
63217;SDS011;49314;48.278;16.378;2023-04-24T02:49:58;9.85;;;9.07;;
63217;SDS011;49314;48.278;16.378;2023-04-24T02:52:23;10.80;;;10.10;;
63217;SDS011;49314;48.278;16.378;2023-04-24T02:54:49;11.25;;;10.55;;
63217;SDS011;49314;48.278;16.378;2023-04-24T02:57:15;10.80;;;10.17;;
63217;SDS011;49314;48.278;16.378;2023-04-24T02:59:40;9.88;;;9.27;;
63217;SDS011;49314;48.278;16.378;2023-04-24T03:02:05;9.83;;;9.13;;
63217;SDS011;49314;48.278;16.378;2023-04-24T03:04:30;9.20;;;8.43;;
63217;SDS011;49314;48.278;16.378;2023-04-24T03:06:56;9.73;;;9.02;;
63217;SDS011;49314;48.278;16.378;2023-04-24T03:09:21;9.23;;;8.55;;
63217;SDS011;49314;48.278;16.378;2023-04-24T03:11:46;8.05;;;7.45;;
63217;SDS011;49314;48.278;16.378;2023-04-24T03:14:12;8.90;;;8.40;;
63217;SDS011;49314;48.278;16.378;2023-04-24T03:16:37;10.13;;;9.55;;
63217;SDS011;49314;48.278;16.378;2023-04-24T03:19:02;9.25;;;8.70;;
63217;SDS011;49314;48.278;16.378;2023-04-24T03:21:27;8.70;;;8.20;;
63217;SDS011;49314;48.278;16.378;2023-04-24T03:23:53;8.30;;;7.70;;
63217;SDS011;49314;48.278;16.378;2023-04-24T03:26:18;7.47;;;6.97;;
63217;SDS011;49314;48.278;16.378;2023-04-24T03:28:43;9.43;;;8.93;;
63217;SDS011;49314;48.278;16.378;2023-04-24T03:31:08;7.97;;;7.47;;
63217;SDS011;49314;48.278;16.378;2023-04-24T03:33:34;8.25;;;7.72;;
63217;SDS011;49314;48.278;16.378;2023-04-24T03:35:59;8.57;;;8.03;;
63217;SDS011;49314;48.278;16.378;2023-04-24T03:38:24;9.70;;;8.98;;
63217;SDS011;49314;48.278;16.378;2023-04-24T03:40:49;8.20;;;7.60;;
63217;SDS011;49314;48.278;16.378;2023-04-24T03:43:15;8.30;;;7.67;;
63217;SDS011;49314;48.278;16.378;2023-04-24T03:45:40;9.30;;;8.70;;
63217;SDS011;49314;48.278;16.378;2023-04-24T03:48:05;9.50;;;8.80;;
63217;SDS011;49314;48.278;16.378;2023-04-24T03:50:30;8.82;;;8.13;;
63217;SDS011;49314;48.278;16.378;2023-04-24T03:52:56;8.82;;;8.32;;
63217;SDS011;49314;48.278;16.378;2023-04-24T03:55:21;9.40;;;8.60;;
63217;SDS011;49314;48.278;16.378;2023-04-24T03:57:46;7.10;;;6.43;;
63217;SDS011;49314;48.278;16.378;2023-04-24T04:00:12;11.68;;;10.98;;
63217;SDS011;49314;48.278;16.378;2023-04-24T04:02:37;8.05;;;7.55;;
63217;SDS011;49314;48.278;16.378;2023-04-24T04:05:02;8.80;;;8.10;;
63217;SDS011;49314;48.278;16.378;2023-04-24T04:07:27;8.38;;;7.85;;
63217;SDS011;49314;48.278;16.378;2023-04-24T04:09:54;7.72;;;7.22;;
63217;SDS011;49314;48.278;16.378;2023-04-24T04:12:19;8.33;;;7.77;;
63217;SDS011;49314;48.278;16.378;2023-04-24T04:14:45;8.80;;;8.20;;
63217;SDS011;49314;48.278;16.378;2023-04-24T04:17:10;8.60;;;7.80;;
63217;SDS011;49314;48.278;16.378;2023-04-24T04:19:35;7.47;;;6.97;;
63217;SDS011;49314;48.278;16.378;2023-04-24T04:22:01;7.65;;;7.25;;
63217;SDS011;49314;48.278;16.378;2023-04-24T04:24:26;7.55;;;7.13;;
63217;SDS011;49314;48.278;16.378;2023-04-24T04:26:51;8.63;;;7.93;;
63217;SDS011;49314;48.278;16.378;2023-04-24T04:29:17;8.55;;;7.80;;
63217;SDS011;49314;48.278;16.378;2023-04-24T04:31:43;7.97;;;7.38;;
63217;SDS011;49314;48.278;16.378;2023-04-24T04:34:08;7.65;;;7.15;;
63217;SDS011;49314;48.278;16.378;2023-04-24T04:36:34;7.38;;;6.78;;
63217;SDS011;49314;48.278;16.378;2023-04-24T04:39:02;7.20;;;6.72;;
63217;SDS011;49314;48.278;16.378;2023-04-24T04:41:28;7.78;;;7.30;;
63217;SDS011;49314;48.278;16.378;2023-04-24T04:43:54;7.15;;;6.75;;
63217;SDS011;49314;48.278;16.378;2023-04-24T04:46:19;4.70;;;4.32;;
63217;SDS011;49314;48.278;16.378;2023-04-24T04:48:45;7.15;;;6.72;;
63217;SDS011;49314;48.278;16.378;2023-04-24T04:51:10;6.50;;;6.13;;
63217;SDS011;49314;48.278;16.378;2023-04-24T04:53:36;6.47;;;5.88;;
63217;SDS011;49314;48.278;16.378;2023-04-24T04:56:01;4.63;;;4.38;;
63217;SDS011;49314;48.278;16.378;2023-04-24T04:58:26;5.28;;;4.85;;
63217;SDS011;49314;48.278;16.378;2023-04-24T05:00:51;5.95;;;5.65;;
63217;SDS011;49314;48.278;16.378;2023-04-24T05:03:17;5.82;;;5.53;;
63217;SDS011;49314;48.278;16.378;2023-04-24T05:05:42;4.05;;;3.85;;
63217;SDS011;49314;48.278;16.378;2023-04-24T05:08:07;5.55;;;5.15;;
63217;SDS011;49314;48.278;16.378;2023-04-24T05:10:33;4.80;;;4.50;;
63217;SDS011;49314;48.278;16.378;2023-04-24T05:12:58;5.18;;;4.85;;
63217;SDS011;49314;48.278;16.378;2023-04-24T05:15:23;4.88;;;4.57;;
63217;SDS011;49314;48.278;16.378;2023-04-24T05:17:49;4.35;;;4.10;;
63217;SDS011;49314;48.278;16.378;2023-04-24T05:20:14;4.95;;;4.57;;
63217;SDS011;49314;48.278;16.378;2023-04-24T05:22:40;4.85;;;4.55;;
63217;SDS011;49314;48.278;16.378;2023-04-24T05:25:05;4.95;;;4.65;;
63217;SDS011;49314;48.278;16.378;2023-04-24T05:27:30;3.78;;;3.45;;
63217;SDS011;49314;48.278;16.378;2023-04-24T05:29:56;4.28;;;3.88;;
63217;SDS011;49314;48.278;16.378;2023-04-24T05:32:21;3.92;;;3.70;;
63217;SDS011;49314;48.278;16.378;2023-04-24T05:34:46;4.07;;;3.88;;
63217;SDS011;49314;48.278;16.378;2023-04-24T05:37:12;3.97;;;3.78;;
63217;SDS011;49314;48.278;16.378;2023-04-24T05:39:37;3.92;;;3.72;;
63217;SDS011;49314;48.278;16.378;2023-04-24T05:42:03;3.45;;;3.25;;
63217;SDS011;49314;48.278;16.378;2023-04-24T05:44:29;4.15;;;3.75;;
63217;SDS011;49314;48.278;16.378;2023-04-24T05:46:55;4.30;;;3.08;;
63217;SDS011;49314;48.278;16.378;2023-04-24T05:49:23;4.25;;;3.17;;
63217;SDS011;49314;48.278;16.378;2023-04-24T05:51:48;5.10;;;3.50;;
63217;SDS011;49314;48.278;16.378;2023-04-24T05:54:13;3.35;;;3.22;;
63217;SDS011;49314;48.278;16.378;2023-04-24T05:56:39;2.67;;;2.47;;
63217;SDS011;49314;48.278;16.378;2023-04-24T05:59:04;5.55;;;3.22;;
63217;SDS011;49314;48.278;16.378;2023-04-24T06:01:30;3.58;;;3.17;;
63217;SDS011;49314;48.278;16.378;2023-04-24T06:03:56;3.05;;;2.85;;
63217;SDS011;49314;48.278;16.378;2023-04-24T06:06:21;3.63;;;3.33;;
63217;SDS011;49314;48.278;16.378;2023-04-24T06:08:46;4.10;;;3.90;;
63217;SDS011;49314;48.278;16.378;2023-04-24T06:11:12;3.78;;;3.58;;
63217;SDS011;49314;48.278;16.378;2023-04-24T06:13:37;3.97;;;3.67;;
63217;SDS011;49314;48.278;16.378;2023-04-24T06:16:02;4.15;;;3.92;;
63217;SDS011;49314;48.278;16.378;2023-04-24T06:18:27;4.13;;;3.83;;
63217;SDS011;49314;48.278;16.378;2023-04-24T06:20:53;4.17;;;3.97;;
63217;SDS011;49314;48.278;16.378;2023-04-24T06:23:18;4.22;;;3.22;;
63217;SDS011;49314;48.278;16.378;2023-04-24T06:25:43;3.90;;;3.70;;
63217;SDS011;49314;48.278;16.378;2023-04-24T06:28:08;4.40;;;4.10;;
63217;SDS011;49314;48.278;16.378;2023-04-24T06:30:34;4.25;;;3.95;;
63217;SDS011;49314;48.278;16.378;2023-04-24T06:32:59;4.30;;;4.00;;
63217;SDS011;49314;48.278;16.378;2023-04-24T06:35:24;4.70;;;4.30;;
63217;SDS011;49314;48.278;16.378;2023-04-24T06:37:50;3.28;;;2.80;;
63217;SDS011;49314;48.278;16.378;2023-04-24T06:40:16;3.30;;;3.10;;
63217;SDS011;49314;48.278;16.378;2023-04-24T06:42:43;3.90;;;3.65;;
63217;SDS011;49314;48.278;16.378;2023-04-24T06:45:08;3.40;;;3.07;;
63217;SDS011;49314;48.278;16.378;2023-04-24T06:47:34;4.03;;;3.72;;
63217;SDS011;49314;48.278;16.378;2023-04-24T06:49:59;7.03;;;3.78;;
63217;SDS011;49314;48.278;16.378;2023-04-24T06:52:24;4.38;;;3.75;;
63217;SDS011;49314;48.278;16.378;2023-04-24T06:54:50;3.60;;;3.30;;
63217;SDS011;49314;48.278;16.378;2023-04-24T06:57:15;4.43;;;4.18;;
63217;SDS011;49314;48.278;16.378;2023-04-24T06:59:41;4.70;;;3.10;;
63217;SDS011;49314;48.278;16.378;2023-04-24T07:02:06;3.78;;;3.38;;
63217;SDS011;49314;48.278;16.378;2023-04-24T07:04:31;4.17;;;3.73;;
63217;SDS011;49314;48.278;16.378;2023-04-24T07:06:57;3.40;;;3.20;;
63217;SDS011;49314;48.278;16.378;2023-04-24T07:09:23;3.20;;;3.00;;
63217;SDS011;49314;48.278;16.378;2023-04-24T07:11:49;3.13;;;2.55;;
63217;SDS011;49314;48.278;16.378;2023-04-24T07:14:14;3.42;;;3.13;;
63217;SDS011;49314;48.278;16.378;2023-04-24T07:16:40;2.95;;;2.75;;
63217;SDS011;49314;48.278;16.378;2023-04-24T07:19:05;3.70;;;3.40;;
63217;SDS011;49314;48.278;16.378;2023-04-24T07:21:31;3.92;;;3.40;;
63217;SDS011;49314;48.278;16.378;2023-04-24T07:23:57;3.28;;;2.78;;
63217;SDS011;49314;48.278;16.378;2023-04-24T07:26:22;3.25;;;3.05;;
63217;SDS011;49314;48.278;16.378;2023-04-24T07:28:47;3.00;;;2.80;;
63217;SDS011;49314;48.278;16.378;2023-04-24T07:31:12;4.10;;;3.80;;
63217;SDS011;49314;48.278;16.378;2023-04-24T07:33:38;3.33;;;3.13;;
63217;SDS011;49314;48.278;16.378;2023-04-24T07:36:03;3.90;;;3.60;;
63217;SDS011;49314;48.278;16.378;2023-04-24T07:38:31;4.25;;;3.95;;
63217;SDS011;49314;48.278;16.378;2023-04-24T07:40:57;3.33;;;3.13;;
63217;SDS011;49314;48.278;16.378;2023-04-24T07:43:22;49.15;;;8.52;;
63217;SDS011;49314;48.278;16.378;2023-04-24T07:45:48;3.30;;;3.00;;
63217;SDS011;49314;48.278;16.378;2023-04-24T07:48:14;3.38;;;3.17;;
63217;SDS011;49314;48.278;16.378;2023-04-24T07:50:41;3.35;;;3.15;;
63217;SDS011;49314;48.278;16.378;2023-04-24T07:53:06;3.78;;;3.05;;
63217;SDS011;49314;48.278;16.378;2023-04-24T07:55:32;3.80;;;3.53;;
63217;SDS011;49314;48.278;16.378;2023-04-24T07:57:57;3.65;;;3.33;;
63217;SDS011;49314;48.278;16.378;2023-04-24T08:00:22;2.90;;;2.77;;
63217;SDS011;49314;48.278;16.378;2023-04-24T08:02:47;3.30;;;3.03;;
63217;SDS011;49314;48.278;16.378;2023-04-24T08:05:12;4.43;;;3.03;;
63217;SDS011;49314;48.278;16.378;2023-04-24T08:07:38;3.17;;;2.97;;
63217;SDS011;49314;48.278;16.378;2023-04-24T08:10:03;3.05;;;2.85;;
63217;SDS011;49314;48.278;16.378;2023-04-24T08:12:29;2.33;;;2.22;;
63217;SDS011;49314;48.278;16.378;2023-04-24T08:14:54;3.78;;;3.58;;
63217;SDS011;49314;48.278;16.378;2023-04-24T08:17:20;2.13;;;2.03;;
63217;SDS011;49314;48.278;16.378;2023-04-24T08:19:45;2.88;;;2.78;;
63217;SDS011;49314;48.278;16.378;2023-04-24T08:22:13;3.28;;;3.00;;
63217;SDS011;49314;48.278;16.378;2023-04-24T08:24:38;2.40;;;2.25;;
63217;SDS011;49314;48.278;16.378;2023-04-24T08:27:04;3.70;;;3.50;;
63217;SDS011;49314;48.278;16.378;2023-04-24T08:29:29;3.42;;;3.22;;
63217;SDS011;49314;48.278;16.378;2023-04-24T08:31:54;3.25;;;3.05;;
63217;SDS011;49314;48.278;16.378;2023-04-24T08:34:20;3.03;;;2.72;;
63217;SDS011;49314;48.278;16.378;2023-04-24T08:36:45;2.25;;;2.15;;
63217;SDS011;49314;48.278;16.378;2023-04-24T08:39:10;3.40;;;3.20;;
63217;SDS011;49314;48.278;16.378;2023-04-24T08:41:36;3.17;;;2.95;;
63217;SDS011;49314;48.278;16.378;2023-04-24T08:44:02;3.60;;;3.40;;
63217;SDS011;49314;48.278;16.378;2023-04-24T08:46:28;3.03;;;2.92;;
63217;SDS011;49314;48.278;16.378;2023-04-24T08:48:54;3.63;;;2.95;;
63217;SDS011;49314;48.278;16.378;2023-04-24T08:51:20;3.20;;;3.00;;
63217;SDS011;49314;48.278;16.378;2023-04-24T08:53:46;3.10;;;2.90;;
63217;SDS011;49314;48.278;16.378;2023-04-24T08:56:12;3.53;;;3.13;;
63217;SDS011;49314;48.278;16.378;2023-04-24T08:58:38;3.00;;;2.75;;
63217;SDS011;49314;48.278;16.378;2023-04-24T09:01:03;2.90;;;2.80;;
63217;SDS011;49314;48.278;16.378;2023-04-24T09:03:29;3.63;;;3.45;;
63217;SDS011;49314;48.278;16.378;2023-04-24T09:05:55;3.25;;;3.13;;
63217;SDS011;49314;48.278;16.378;2023-04-24T09:08:23;2.95;;;2.85;;
63217;SDS011;49314;48.278;16.378;2023-04-24T09:10:48;3.05;;;2.55;;
63217;SDS011;49314;48.278;16.378;2023-04-24T09:13:14;3.30;;;3.00;;
63217;SDS011;49314;48.278;16.378;2023-04-24T09:15:39;3.70;;;3.47;;
63217;SDS011;49314;48.278;16.378;2023-04-24T09:18:05;2.72;;;2.63;;
63217;SDS011;49314;48.278;16.378;2023-04-24T09:20:31;2.70;;;2.60;;
63217;SDS011;49314;48.278;16.378;2023-04-24T09:22:56;3.53;;;3.42;;
63217;SDS011;49314;48.278;16.378;2023-04-24T09:25:22;3.67;;;3.53;;
63217;SDS011;49314;48.278;16.378;2023-04-24T09:27:47;4.65;;;4.45;;
63217;SDS011;49314;48.278;16.378;2023-04-24T09:30:13;3.83;;;3.72;;
63217;SDS011;49314;48.278;16.378;2023-04-24T09:32:38;3.50;;;3.40;;
63217;SDS011;49314;48.278;16.378;2023-04-24T09:35:07;4.32;;;4.13;;
63217;SDS011;49314;48.278;16.378;2023-04-24T09:37:39;4.47;;;4.38;;
63217;SDS011;49314;48.278;16.378;2023-04-24T09:42:52;3.00;;;2.85;;
63217;SDS011;49314;48.278;16.378;2023-04-24T09:45:17;3.00;;;2.90;;
63217;SDS011;49314;48.278;16.378;2023-04-24T09:47:42;3.45;;;3.35;;
63217;SDS011;49314;48.278;16.378;2023-04-24T09:50:15;3.20;;;3.10;;
63217;SDS011;49314;48.278;16.378;2023-04-24T09:52:41;1.95;;;1.85;;
63217;SDS011;49314;48.278;16.378;2023-04-24T09:55:16;3.63;;;3.42;;
63217;SDS011;49314;48.278;16.378;2023-04-24T10:00:17;4.10;;;3.95;;
63217;SDS011;49314;48.278;16.378;2023-04-24T10:02:42;3.88;;;3.67;;
63217;SDS011;49314;48.278;16.378;2023-04-24T10:05:09;4.10;;;4.00;;
63217;SDS011;49314;48.278;16.378;2023-04-24T10:07:37;3.33;;;3.22;;
63217;SDS011;49314;48.278;16.378;2023-04-24T10:10:02;3.53;;;3.42;;
63217;SDS011;49314;48.278;16.378;2023-04-24T10:12:27;4.55;;;4.35;;
63217;SDS011;49314;48.278;16.378;2023-04-24T10:14:53;4.63;;;4.53;;
63217;SDS011;49314;48.278;16.378;2023-04-24T10:17:19;3.63;;;3.53;;
63217;SDS011;49314;48.278;16.378;2023-04-24T10:19:46;2.90;;;2.80;;
63217;SDS011;49314;48.278;16.378;2023-04-24T10:22:12;4.35;;;4.15;;
63217;SDS011;49314;48.278;16.378;2023-04-24T10:24:37;2.65;;;2.55;;
63217;SDS011;49314;48.278;16.378;2023-04-24T10:27:03;3.90;;;3.80;;
63217;SDS011;49314;48.278;16.378;2023-04-24T10:29:28;4.18;;;4.00;;
63217;SDS011;49314;48.278;16.378;2023-04-24T10:31:56;4.25;;;4.05;;
63217;SDS011;49314;48.278;16.378;2023-04-24T10:34:21;3.47;;;3.33;;
63217;SDS011;49314;48.278;16.378;2023-04-24T10:36:48;3.30;;;3.13;;
63217;SDS011;49314;48.278;16.378;2023-04-24T10:39:15;2.67;;;2.58;;
63217;SDS011;49314;48.278;16.378;2023-04-24T10:41:41;2.40;;;2.30;;
63217;SDS011;49314;48.278;16.378;2023-04-24T10:44:10;2.35;;;2.25;;
63217;SDS011;49314;48.278;16.378;2023-04-24T10:46:35;3.90;;;3.70;;
63217;SDS011;49314;48.278;16.378;2023-04-24T10:49:07;2.80;;;2.70;;
63217;SDS011;49314;48.278;16.378;2023-04-24T10:51:45;3.70;;;3.60;;
63217;SDS011;49314;48.278;16.378;2023-04-24T10:54:23;3.25;;;3.15;;
63217;SDS011;49314;48.278;16.378;2023-04-24T10:56:50;3.20;;;3.10;;
63217;SDS011;49314;48.278;16.378;2023-04-24T10:59:23;3.63;;;3.53;;
63217;SDS011;49314;48.278;16.378;2023-04-24T11:01:52;2.80;;;2.70;;
63217;SDS011;49314;48.278;16.378;2023-04-24T11:04:21;2.55;;;2.45;;
63217;SDS011;49314;48.278;16.378;2023-04-24T11:06:53;3.63;;;3.40;;
63217;SDS011;49314;48.278;16.378;2023-04-24T11:09:18;3.45;;;3.35;;
63217;SDS011;49314;48.278;16.378;2023-04-24T11:11:45;2.92;;;2.83;;
63217;SDS011;49314;48.278;16.378;2023-04-24T11:14:13;3.55;;;3.42;;
63217;SDS011;49314;48.278;16.378;2023-04-24T11:16:42;3.15;;;2.95;;
63217;SDS011;49314;48.278;16.378;2023-04-24T11:19:10;2.97;;;2.88;;
63217;SDS011;49314;48.278;16.378;2023-04-24T11:26:51;2.95;;;2.85;;
63217;SDS011;49314;48.278;16.378;2023-04-24T11:29:19;3.25;;;3.15;;
63217;SDS011;49314;48.278;16.378;2023-04-24T11:31:45;3.58;;;3.08;;
63217;SDS011;49314;48.278;16.378;2023-04-24T11:34:15;3.40;;;3.20;;
63217;SDS011;49314;48.278;16.378;2023-04-24T11:36:44;3.80;;;3.70;;
63217;SDS011;49314;48.278;16.378;2023-04-24T11:39:10;3.40;;;3.30;;
63217;SDS011;49314;48.278;16.378;2023-04-24T11:41:36;3.78;;;3.58;;
63217;SDS011;49314;48.278;16.378;2023-04-24T11:44:02;3.53;;;3.35;;
63217;SDS011;49314;48.278;16.378;2023-04-24T11:46:28;2.78;;;2.67;;
63217;SDS011;49314;48.278;16.378;2023-04-24T11:48:54;3.03;;;2.72;;
63217;SDS011;49314;48.278;16.378;2023-04-24T11:51:20;3.45;;;3.17;;
63217;SDS011;49314;48.278;16.378;2023-04-24T11:53:45;4.03;;;3.73;;
63217;SDS011;49314;48.278;16.378;2023-04-24T11:56:10;3.80;;;3.60;;
63217;SDS011;49314;48.278;16.378;2023-04-24T11:58:35;4.10;;;3.75;;
63217;SDS011;49314;48.278;16.378;2023-04-24T12:01:01;3.88;;;3.67;;
63217;SDS011;49314;48.278;16.378;2023-04-24T12:03:26;5.32;;;4.70;;
63217;SDS011;49314;48.278;16.378;2023-04-24T12:05:51;4.60;;;3.97;;
63217;SDS011;49314;48.278;16.378;2023-04-24T12:08:26;5.13;;;4.82;;
63217;SDS011;49314;48.278;16.378;2023-04-24T12:10:52;4.22;;;3.92;;
63217;SDS011;49314;48.278;16.378;2023-04-24T12:13:17;3.83;;;3.60;;
63217;SDS011;49314;48.278;16.378;2023-04-24T12:15:42;4.30;;;3.93;;
63217;SDS011;49314;48.278;16.378;2023-04-24T12:18:08;3.72;;;3.53;;
63217;SDS011;49314;48.278;16.378;2023-04-24T12:20:36;4.43;;;4.13;;
63217;SDS011;49314;48.278;16.378;2023-04-24T12:23:01;4.18;;;3.97;;
63217;SDS011;49314;48.278;16.378;2023-04-24T12:25:30;4.17;;;3.70;;
63217;SDS011;49314;48.278;16.378;2023-04-24T12:30:27;2.53;;;2.42;;
63217;SDS011;49314;48.278;16.378;2023-04-24T12:32:54;9.23;;;8.43;;
63217;SDS011;49314;48.278;16.378;2023-04-24T12:35:21;3.20;;;3.00;;
63217;SDS011;49314;48.278;16.378;2023-04-24T12:37:46;3.72;;;3.45;;
63217;SDS011;49314;48.278;16.378;2023-04-24T12:40:12;3.53;;;3.22;;
63217;SDS011;49314;48.278;16.378;2023-04-24T12:42:44;3.10;;;2.90;;
63217;SDS011;49314;48.278;16.378;2023-04-24T12:45:10;2.80;;;1.77;;
63217;SDS011;49314;48.278;16.378;2023-04-24T12:47:37;3.45;;;3.17;;
63217;SDS011;49314;48.278;16.378;2023-04-24T12:50:03;2.50;;;2.40;;
63217;SDS011;49314;48.278;16.378;2023-04-24T12:52:29;2.92;;;2.47;;
63217;SDS011;49314;48.278;16.378;2023-04-24T12:54:55;3.05;;;2.78;;
63217;SDS011;49314;48.278;16.378;2023-04-24T12:57:21;3.08;;;2.97;;
63217;SDS011;49314;48.278;16.378;2023-04-24T12:59:47;3.63;;;3.38;;
63217;SDS011;49314;48.278;16.378;2023-04-24T13:02:12;3.28;;;2.65;;
63217;SDS011;49314;48.278;16.378;2023-04-24T13:04:37;2.58;;;2.47;;
63217;SDS011;49314;48.278;16.378;2023-04-24T13:07:03;3.80;;;2.92;;
63217;SDS011;49314;48.278;16.378;2023-04-24T13:09:28;2.53;;;2.42;;
63217;SDS011;49314;48.278;16.378;2023-04-24T13:11:54;3.20;;;2.88;;
63217;SDS011;49314;48.278;16.378;2023-04-24T13:14:19;2.65;;;2.45;;
63217;SDS011;49314;48.278;16.378;2023-04-24T13:16:44;3.38;;;3.17;;
63217;SDS011;49314;48.278;16.378;2023-04-24T13:19:10;3.43;;;3.23;;
63217;SDS011;49314;48.278;16.378;2023-04-24T13:21:35;4.10;;;3.00;;
63217;SDS011;49314;48.278;16.378;2023-04-24T13:24:00;3.05;;;2.85;;
63217;SDS011;49314;48.278;16.378;2023-04-24T13:26:26;2.10;;;2.00;;
63217;SDS011;49314;48.278;16.378;2023-04-24T13:28:51;3.03;;;2.65;;
63217;SDS011;49314;48.278;16.378;2023-04-24T13:31:16;3.80;;;2.40;;
63217;SDS011;49314;48.278;16.378;2023-04-24T13:33:42;3.05;;;2.80;;
63217;SDS011;49314;48.278;16.378;2023-04-24T13:36:07;2.83;;;2.38;;
63217;SDS011;49314;48.278;16.378;2023-04-24T13:38:32;5.35;;;2.83;;
63217;SDS011;49314;48.278;16.378;2023-04-24T13:40:57;2.30;;;2.10;;
63217;SDS011;49314;48.278;16.378;2023-04-24T13:43:23;3.90;;;3.60;;
63217;SDS011;49314;48.278;16.378;2023-04-24T13:45:48;3.22;;;3.03;;
63217;SDS011;49314;48.278;16.378;2023-04-24T13:48:13;3.65;;;3.45;;
63217;SDS011;49314;48.278;16.378;2023-04-24T13:50:40;3.67;;;3.38;;
63217;SDS011;49314;48.278;16.378;2023-04-24T13:53:05;3.42;;;3.08;;
63217;SDS011;49314;48.278;16.378;2023-04-24T13:55:31;3.40;;;3.03;;
63217;SDS011;49314;48.278;16.378;2023-04-24T13:57:56;4.43;;;3.57;;
63217;SDS011;49314;48.278;16.378;2023-04-24T14:00:21;4.68;;;3.90;;
63217;SDS011;49314;48.278;16.378;2023-04-24T14:02:46;6.43;;;4.50;;
63217;SDS011;49314;48.278;16.378;2023-04-24T14:05:13;6.07;;;5.10;;
63217;SDS011;49314;48.278;16.378;2023-04-24T14:07:40;7.97;;;6.18;;
63217;SDS011;49314;48.278;16.378;2023-04-24T14:10:05;12.05;;;5.25;;
63217;SDS011;49314;48.278;16.378;2023-04-24T14:12:30;7.68;;;5.13;;
63217;SDS011;49314;48.278;16.378;2023-04-24T14:14:56;4.28;;;3.97;;
63217;SDS011;49314;48.278;16.378;2023-04-24T14:17:21;6.68;;;5.97;;
63217;SDS011;49314;48.278;16.378;2023-04-24T14:19:46;6.43;;;5.23;;
63217;SDS011;49314;48.278;16.378;2023-04-24T14:22:12;5.97;;;5.55;;
63217;SDS011;49314;48.278;16.378;2023-04-24T14:24:37;5.53;;;5.03;;
63217;SDS011;49314;48.278;16.378;2023-04-24T14:27:02;5.55;;;5.13;;
63217;SDS011;49314;48.278;16.378;2023-04-24T14:29:28;4.57;;;4.13;;
63217;SDS011;49314;48.278;16.378;2023-04-24T14:31:53;5.20;;;4.68;;
63217;SDS011;49314;48.278;16.378;2023-04-24T14:34:18;7.17;;;6.60;;
63217;SDS011;49314;48.278;16.378;2023-04-24T14:36:44;5.90;;;5.50;;